Burwash Landing, Canada
Current Conditions -  °F | °C
As of 5:00 AM on Saturday 25 Oct 2014 (Local Time) from CYDB Reporting Station
Overcast Overcast  
Wind Chill: 13°   Ceiling: 400
Heat Index: 19°   Visibility: 9mi
Dew Point: 19°   Wind: 5mph
Humidity: 100%   Direction: 270°W
Pressure: 29.82"   Gusts: NA
Location:  61.35°N, 138.99°W
Report Text: CYDB 251200Z AUTO 27004KT 9SM OVC004 M07/M07 A2982 RMK SLP146
Loading
Personal Weather Stations






























Interactive Weather Map
Tropical Storm Tracking
New forecast layout! Learn more

10-Day Weather Forecast

Advertisements
Track Severe Weather on mobile